createdAt,value
2019-02-23T00:01:59.512Z,81.09
2019-02-23T00:04:34.499Z,80.99
2019-02-23T00:11:49.323Z,80.96
2019-02-23T00:17:37.343Z,81.02
2019-02-23T00:20:50.051Z,80.89
2019-02-23T00:34:30.573Z,80.56
2019-02-23T00:38:05.993Z,80.40
2019-02-23T00:41:03.021Z,80.93
2019-02-23T00:47:14.727Z,80.62
2019-02-23T00:50:14.317Z,80.89
2019-02-23T00:53:08.538Z,81.02
2019-02-23T00:55:43.428Z,81.01
2019-02-23T00:58:18.379Z,80.77
2019-02-23T01:00:53.936Z,81.10
2019-02-23T01:03:28.847Z,81.03
2019-02-23T01:06:03.773Z,81.10
2019-02-23T01:08:38.613Z,80.94
2019-02-23T01:11:31.527Z,81.08
2019-02-23T01:14:07.277Z,81.41
2019-02-23T01:17:03.308Z,81.63
2019-02-23T01:19:51.497Z,81.61
2019-02-23T01:26:21.917Z,82.24
2019-02-23T01:29:56.583Z,82.19
2019-02-23T01:32:51.397Z,82.39
2019-02-23T01:35:26.271Z,82.65
2019-02-23T01:41:52.269Z,83.02
2019-02-23T01:44:28.019Z,83.06
2019-02-23T01:53:16.293Z,83.06
2019-02-23T02:00:35.653Z,83.02
2019-02-23T02:25:09.256Z,82.53
2019-02-23T02:35:38.924Z,83.09
2019-02-23T02:53:22.240Z,82.11
2019-02-23T03:03:58.764Z,81.66
2019-02-23T03:10:43.142Z,81.93
2019-02-23T03:13:18.968Z,81.89
2019-02-23T03:16:39.281Z,81.69
2019-02-23T03:19:58.692Z,81.44
2019-02-23T03:22:34.558Z,81.35
2019-02-23T03:25:09.658Z,81.61
2019-02-23T03:31:01.683Z,80.92
2019-02-23T03:41:27.463Z,81.03
2019-02-23T03:44:03.184Z,81.83
2019-02-23T03:46:39.553Z,81.69
2019-02-23T03:49:14.432Z,81.48
2019-02-23T03:51:49.460Z,80.74
2019-02-23T03:54:24.410Z,80.97
2019-02-23T03:56:59.462Z,80.85
2019-02-23T03:59:35.716Z,81.31
2019-02-23T04:02:10.614Z,81.34
2019-02-23T04:04:45.516Z,81.15
2019-02-23T04:07:21.280Z,80.96
2019-02-23T04:09:56.142Z,80.72
2019-02-23T04:12:32.461Z,80.20
2019-02-23T04:15:09.936Z,80.61
2019-02-23T04:18:02.965Z,80.51
2019-02-23T04:21:01.882Z,80.34
2019-02-23T04:23:35.307Z,80.32
2019-02-23T04:26:11.190Z,80.48
2019-02-23T04:28:51.286Z,79.89
2019-02-23T04:31:37.442Z,79.95
2019-02-23T04:34:30.866Z,79.66
2019-02-23T04:37:06.582Z,79.82
2019-02-23T04:52:00.797Z,78.34
2019-02-23T04:54:43.696Z,78.83
2019-02-23T04:57:19.421Z,78.54
2019-02-23T05:01:00.194Z,78.51
2019-02-23T05:03:03.482Z,78.40
2019-02-23T05:05:40.011Z,78.55
2019-02-23T05:08:35.043Z,78.42
2019-02-23T05:14:49.789Z,78.29
2019-02-23T05:29:27.686Z,78.76
2019-02-23T05:32:28.092Z,78.30
2019-02-23T05:37:58.796Z,78.65
2019-02-23T05:40:56.673Z,78.72
2019-02-23T05:43:37.176Z,79.48
2019-02-23T05:46:12.168Z,79.47
2019-02-23T05:48:47.094Z,79.41
2019-02-23T05:51:22.092Z,79.59
2019-02-23T05:53:57.020Z,80.05
2019-02-23T06:03:04.132Z,80.57
2019-02-23T06:05:42.293Z,80.49
2019-02-23T06:08:19.038Z,80.87
2019-02-23T06:11:00.538Z,80.71
2019-02-23T06:13:35.486Z,81.42
2019-02-23T06:16:10.926Z,81.06
2019-02-23T06:19:07.025Z,81.43
2019-02-23T06:21:55.379Z,81.14
2019-02-23T06:25:09.714Z,81.04
2019-02-23T06:27:45.816Z,81.25
2019-02-23T06:38:58.340Z,81.62
2019-02-23T06:41:44.947Z,81.92
2019-02-23T06:44:43.306Z,81.79
2019-02-23T06:47:18.554Z,81.63
2019-02-23T06:53:04.090Z,81.41
2019-02-23T06:55:50.099Z,81.60
2019-02-23T06:58:24.991Z,81.57
2019-02-23T07:01:03.846Z,81.57
2019-02-23T07:03:39.648Z,81.98
2019-02-23T07:06:14.531Z,81.94
2019-02-23T07:08:49.410Z,81.71
2019-02-23T07:11:46.048Z,81.40
2019-02-23T07:17:38.640Z,81.63
2019-02-23T07:20:27.762Z,81.37
2019-02-23T07:23:03.612Z,81.40
2019-02-23T07:25:52.180Z,80.85
2019-02-23T07:28:40.108Z,80.72
2019-02-23T07:31:15.936Z,81.01
2019-02-23T07:34:11.839Z,80.95
2019-02-23T07:37:00.398Z,80.76
2019-02-23T07:40:23.787Z,80.62
2019-02-23T07:43:12.203Z,80.30
2019-02-23T07:50:04.445Z,79.17
2019-02-23T07:52:39.372Z,78.86
2019-02-23T07:58:11.770Z,78.62
2019-02-23T08:01:05.298Z,78.71
2019-02-23T08:03:41.778Z,77.70
2019-02-23T08:06:32.285Z,77.27
2019-02-23T08:09:27.258Z,76.53
2019-02-23T08:16:04.513Z,75.66
2019-02-23T08:18:49.507Z,75.71
2019-02-23T08:21:24.406Z,74.98
2019-02-23T08:23:59.314Z,74.37
2019-02-23T08:26:34.351Z,72.57
2019-02-23T08:29:13.935Z,73.43
2019-02-23T08:32:03.364Z,72.79
2019-02-23T08:38:19.241Z,71.55
2019-02-23T08:41:08.025Z,71.89
2019-02-23T08:43:46.337Z,72.10
2019-02-23T08:46:26.474Z,72.19
2019-02-23T08:49:02.507Z,72.17
2019-02-23T08:51:40.172Z,71.50
2019-02-23T08:54:16.006Z,71.28
2019-02-23T08:56:52.552Z,71.00
2019-02-23T08:59:28.468Z,71.32
2019-02-23T09:02:19.280Z,70.70
2019-02-23T09:04:56.479Z,69.66
2019-02-23T09:07:32.949Z,70.77
2019-02-23T09:10:12.135Z,70.06
2019-02-23T09:12:47.376Z,69.15
2019-02-23T09:15:25.321Z,69.42
2019-02-23T09:18:00.592Z,68.89
2019-02-23T09:20:39.237Z,69.53
2019-02-23T09:23:16.682Z,67.74
2019-02-23T09:25:58.938Z,68.33
2019-02-23T09:28:34.686Z,67.56
2019-02-23T09:31:11.163Z,67.88
2019-02-23T09:33:46.153Z,67.12
2019-02-23T09:36:42.223Z,67.33
2019-02-23T09:39:17.215Z,67.27
2019-02-23T09:41:54.057Z,66.53
2019-02-23T09:44:30.165Z,65.23
2019-02-23T09:47:05.673Z,63.51
2019-02-23T09:49:41.903Z,63.86
2019-02-23T09:52:17.108Z,63.29
2019-02-23T09:54:52.263Z,64.21
2019-02-23T09:57:27.369Z,65.09
2019-02-23T10:00:03.466Z,63.25
2019-02-23T10:02:39.086Z,62.17
2019-02-23T10:05:13.779Z,62.74
2019-02-23T10:07:49.569Z,61.70
2019-02-23T10:10:25.583Z,62.71
2019-02-23T10:13:02.436Z,63.67
2019-02-23T10:15:37.557Z,61.70
2019-02-23T10:18:12.537Z,61.91
2019-02-23T10:20:47.945Z,62.50
2019-02-23T10:23:23.259Z,61.84
2019-02-23T10:26:35.066Z,62.06
2019-02-23T10:29:03.793Z,61.39
2019-02-23T10:31:38.837Z,60.90
2019-02-23T10:34:14.069Z,60.88
2019-02-23T10:36:49.525Z,60.78
2019-02-23T10:39:24.459Z,59.83
2019-02-23T10:41:59.359Z,59.79
2019-02-23T10:44:34.562Z,59.88
2019-02-23T10:47:09.480Z,59.94
2019-02-23T10:49:44.428Z,59.78
2019-02-23T10:52:19.553Z,58.69
2019-02-23T10:54:54.728Z,58.84
2019-02-23T10:57:29.819Z,59.51
2019-02-23T11:00:07.478Z,58.62
2019-02-23T11:02:42.817Z,58.15
2019-02-23T11:05:18.359Z,58.92
2019-02-23T11:07:53.487Z,57.40
2019-02-23T11:10:29.555Z,57.56
2019-02-23T11:13:04.561Z,58.16
2019-02-23T11:15:39.558Z,58.65
2019-02-23T11:18:14.483Z,58.90
2019-02-23T11:20:50.222Z,57.76
2019-02-23T11:23:25.197Z,58.75
2019-02-23T11:26:00.237Z,56.89
2019-02-23T11:28:35.388Z,56.91
2019-02-23T11:31:10.327Z,58.32
2019-02-23T11:33:45.111Z,57.17
2019-02-23T11:36:20.937Z,56.54
2019-02-23T11:40:17.455Z,56.90
2019-02-23T11:42:36.018Z,56.37
2019-02-23T11:45:11.260Z,55.13
2019-02-23T11:47:46.443Z,54.80
2019-02-23T11:50:21.433Z,53.76
2019-02-23T11:52:56.477Z,54.11
2019-02-23T11:55:31.375Z,55.12
2019-02-23T11:58:06.365Z,54.26
2019-02-23T12:00:41.415Z,51.62
2019-02-23T12:03:16.355Z,52.53
2019-02-23T12:05:51.339Z,51.03
2019-02-23T12:08:26.325Z,51.20
2019-02-23T12:11:01.477Z,50.96
2019-02-23T12:13:36.509Z,50.20
2019-02-23T12:16:13.979Z,49.28
2019-02-23T12:18:50.043Z,47.56
2019-02-23T12:21:24.871Z,45.78
2019-02-23T12:24:05.952Z,45.53
2019-02-23T12:26:53.639Z,45.50
2019-02-23T12:29:33.993Z,45.51
2019-02-23T12:32:12.813Z,44.59
2019-02-23T12:34:52.209Z,46.27
2019-02-23T12:37:31.721Z,45.32
2019-02-23T12:40:07.093Z,46.70
2019-02-23T12:42:42.219Z,46.48
2019-02-23T12:45:17.233Z,46.57
2019-02-23T12:47:54.755Z,47.46
2019-02-23T12:50:33.484Z,47.78
2019-02-23T12:53:11.099Z,47.67
2019-02-23T12:55:52.530Z,46.96
2019-02-23T12:58:27.967Z,47.68
2019-02-23T13:01:03.228Z,47.61
2019-02-23T13:03:38.455Z,47.44
2019-02-23T13:06:14.032Z,47.91
2019-02-23T13:09:21.620Z,46.55
2019-02-23T13:13:16.117Z,47.01
2019-02-23T13:16:33.065Z,44.94
2019-02-23T13:20:20.499Z,44.68
2019-02-23T13:23:56.759Z,43.40
2019-02-23T13:27:18.557Z,40.76
2019-02-23T13:31:02.753Z,39.35
2019-02-23T13:34:18.861Z,39.68
2019-02-23T13:37:38.527Z,38.71
2019-02-23T13:40:51.879Z,37.08
2019-02-23T13:44:35.707Z,37.69
2019-02-23T13:48:29.184Z,37.83
2019-02-23T13:51:52.313Z,38.64
2019-02-23T13:55:42.063Z,37.68
2019-02-23T13:59:09.958Z,35.50
2019-02-23T14:02:53.357Z,35.89
2019-02-23T14:06:31.739Z,36.18
2019-02-23T14:10:20.296Z,35.77
2019-02-23T14:13:42.447Z,35.50
2019-02-23T14:16:55.782Z,35.52
2019-02-23T14:20:43.095Z,35.68
2019-02-23T14:24:34.913Z,34.48
2019-02-23T14:28:22.857Z,33.73
2019-02-23T14:31:23.444Z,33.78
2019-02-23T14:34:45.847Z,33.70
2019-02-23T14:38:16.892Z,33.21
2019-02-23T14:41:55.650Z,32.45
2019-02-23T14:45:40.361Z,33.26
2019-02-23T14:48:57.407Z,33.72
2019-02-23T14:52:20.604Z,33.82
2019-02-23T14:55:08.053Z,33.61
2019-02-23T14:58:35.217Z,33.17
2019-02-23T15:02:15.973Z,33.29
2019-02-23T15:05:37.704Z,33.57
2019-02-23T15:09:09.155Z,32.68
2019-02-23T15:12:19.650Z,32.91
2019-02-23T15:16:17.480Z,33.69
2019-02-23T15:20:01.847Z,34.50
2019-02-23T15:23:22.798Z,36.84
2019-02-23T15:26:42.273Z,38.45
2019-02-23T15:30:09.824Z,40.66
2019-02-23T15:33:55.825Z,42.43
2019-02-23T15:37:14.429Z,43.56
2019-02-23T15:40:57.964Z,46.52
2019-02-23T15:43:53.085Z,46.38
2019-02-23T15:47:30.237Z,48.45
2019-02-23T15:50:12.904Z,48.63
2019-02-23T15:52:44.332Z,47.47
2019-02-23T15:55:27.578Z,48.16
2019-02-23T15:57:56.641Z,49.77
2019-02-23T16:00:34.939Z,48.89
2019-02-23T16:03:09.391Z,50.19
2019-02-23T16:05:44.509Z,50.99
2019-02-23T16:08:19.565Z,51.57
2019-02-23T16:10:54.561Z,51.46
2019-02-23T16:13:29.775Z,52.14
2019-02-23T16:16:04.974Z,53.03
2019-02-23T16:18:40.382Z,53.55
2019-02-23T16:21:15.402Z,53.51
2019-02-23T16:23:50.403Z,54.53
2019-02-23T16:26:26.615Z,55.17
2019-02-23T16:29:03.694Z,55.84
2019-02-23T16:31:38.724Z,56.71
2019-02-23T16:34:14.666Z,56.56
2019-02-23T16:36:49.807Z,57.34
2019-02-23T16:39:24.849Z,57.86
2019-02-23T16:42:03.870Z,57.83
2019-02-23T16:44:39.001Z,59.08
2019-02-23T16:47:14.116Z,58.92
2019-02-23T16:49:49.112Z,59.75
2019-02-23T16:52:26.309Z,60.09
2019-02-23T16:55:01.519Z,60.61
2019-02-23T16:57:36.626Z,61.93
2019-02-23T17:00:11.857Z,62.36
2019-02-23T17:02:46.958Z,63.21
2019-02-23T17:05:22.533Z,63.34
2019-02-23T17:07:57.927Z,64.09
2019-02-23T17:10:33.849Z,64.21
2019-02-23T17:13:08.912Z,65.01
2019-02-23T17:15:44.008Z,65.03
2019-02-23T17:18:19.350Z,65.84
2019-02-23T17:20:55.110Z,65.79
2019-02-23T17:23:30.181Z,66.46
2019-02-23T17:26:07.866Z,66.19
2019-02-23T17:28:42.796Z,66.63
2019-02-23T17:31:18.150Z,66.89
2019-02-23T17:33:53.116Z,67.17
2019-02-23T17:36:28.014Z,67.41
2019-02-23T17:39:03.250Z,67.75
2019-02-23T17:41:39.449Z,67.78
2019-02-23T17:44:14.385Z,67.84
2019-02-23T17:46:49.305Z,68.23
2019-02-23T17:49:24.266Z,68.74
2019-02-23T17:51:59.242Z,68.91
2019-02-23T17:54:34.516Z,68.93
2019-02-23T17:57:09.591Z,68.95
2019-02-23T17:59:44.611Z,69.31
2019-02-23T18:02:19.745Z,69.23
2019-02-23T18:04:55.495Z,69.83
2019-02-23T18:07:31.452Z,69.76
2019-02-23T18:10:07.337Z,69.94
2019-02-23T18:12:42.256Z,70.01
2019-02-23T18:15:18.330Z,70.31
2019-02-23T18:17:54.275Z,70.29
2019-02-23T18:20:29.254Z,69.95
2019-02-23T18:23:04.383Z,70.03
2019-02-23T18:25:39.409Z,70.38
2019-02-23T18:28:14.506Z,70.55
2019-02-23T18:30:49.478Z,70.46
2019-02-23T18:33:27.988Z,70.72
2019-02-23T18:36:03.039Z,71.03
2019-02-23T18:38:38.064Z,71.26
2019-02-23T18:41:12.935Z,71.06
2019-02-23T18:43:47.944Z,71.43
2019-02-23T18:46:23.798Z,71.49
2019-02-23T18:48:59.639Z,71.67
2019-02-23T18:51:35.456Z,71.86
2019-02-23T18:54:10.373Z,72.08
2019-02-23T18:56:52.085Z,71.90
2019-02-23T18:59:41.301Z,71.94
2019-02-23T19:02:17.184Z,72.30
2019-02-23T19:04:52.180Z,72.53
2019-02-23T19:07:28.053Z,72.40
2019-02-23T19:15:06.377Z,72.51
2019-02-23T19:17:57.807Z,72.90
2019-02-23T19:20:33.559Z,73.03
2019-02-23T19:23:11.251Z,73.32
2019-02-23T19:25:54.588Z,73.17
2019-02-23T19:28:29.617Z,73.59
2019-02-23T19:31:05.558Z,73.29
2019-02-23T19:33:41.463Z,73.30
2019-02-23T19:36:16.449Z,73.28
2019-02-23T19:38:52.185Z,73.60
2019-02-23T19:41:28.178Z,73.67
2019-02-23T19:44:07.445Z,73.89
2019-02-23T19:47:42.940Z,74.03
2019-02-23T19:50:26.763Z,73.96
2019-02-23T19:53:02.630Z,74.06
2019-02-23T19:59:02.799Z,74.21
2019-02-23T20:01:41.081Z,74.24
2019-02-23T20:04:16.950Z,74.27
2019-02-23T20:06:51.907Z,74.20
2019-02-23T20:09:26.936Z,74.23
2019-02-23T20:12:01.990Z,74.18
2019-02-23T20:14:46.832Z,74.30
2019-02-23T20:17:21.743Z,73.86
2019-02-23T20:19:57.496Z,73.54
2019-02-23T20:22:32.593Z,73.32
2019-02-23T20:25:08.176Z,73.67
2019-02-23T20:27:44.511Z,73.31
2019-02-23T20:30:20.289Z,73.26
2019-02-23T20:32:55.234Z,73.09
2019-02-23T20:35:32.076Z,72.71
2019-02-23T20:38:06.875Z,72.68
2019-02-23T20:40:41.784Z,72.59
2019-02-23T20:43:16.711Z,72.33
2019-02-23T20:45:51.563Z,72.01
2019-02-23T20:48:26.541Z,72.09
2019-02-23T20:51:01.602Z,71.67
2019-02-23T20:53:36.590Z,71.62
2019-02-23T20:56:11.568Z,71.31
2019-02-23T20:58:46.751Z,71.31
2019-02-23T21:01:21.788Z,70.94
2019-02-23T21:03:57.620Z,71.04
2019-02-23T21:06:32.626Z,70.60
2019-02-23T21:09:09.097Z,70.77
2019-02-23T21:11:45.702Z,70.12
2019-02-23T21:14:20.645Z,70.71
2019-02-23T21:18:15.363Z,70.45
2019-02-23T21:20:51.678Z,70.31
2019-02-23T21:23:28.149Z,69.95
2019-02-23T21:26:06.497Z,69.54
2019-02-23T21:29:20.354Z,69.82
2019-02-23T21:33:21.070Z,69.40
2019-02-23T21:36:02.689Z,69.49
2019-02-23T21:38:37.865Z,68.79
2019-02-23T21:41:13.614Z,68.53
2019-02-23T21:43:49.415Z,68.51
2019-02-23T21:56:25.058Z,67.80
2019-02-23T21:59:17.855Z,67.49
2019-02-23T22:01:57.084Z,67.79
2019-02-23T22:04:32.060Z,68.14
2019-02-23T22:07:07.921Z,68.39
2019-02-23T22:09:57.010Z,68.24
2019-02-23T22:12:32.820Z,68.62
2019-02-23T22:15:13.703Z,68.43
2019-02-23T22:17:51.373Z,68.05
2019-02-23T22:20:28.572Z,67.98
2019-02-23T22:23:04.794Z,67.91
2019-02-23T22:25:40.516Z,67.25
2019-02-23T22:28:16.270Z,67.50
2019-02-23T22:30:52.049Z,67.54
2019-02-23T22:33:26.967Z,68.43
2019-02-23T22:36:02.047Z,68.67
2019-02-23T22:38:36.976Z,69.48
2019-02-23T22:41:39.627Z,68.89
2019-02-23T22:44:20.971Z,69.02
2019-02-23T22:47:14.941Z,69.73
2019-02-23T22:49:50.710Z,69.83
2019-02-23T22:52:54.286Z,70.38
2019-02-23T22:55:35.218Z,70.82
2019-02-23T22:58:11.030Z,70.69
2019-02-23T23:03:52.609Z,70.87
2019-02-23T23:15:12.495Z,72.45
2019-02-23T23:22:21.934Z,72.45
2019-02-23T23:28:37.429Z,73.29
2019-02-23T23:34:32.107Z,73.03
2019-02-23T23:44:45.067Z,73.83
2019-02-23T23:50:43.455Z,74.49
2019-02-23T23:53:20.179Z,74.50
2019-02-23T23:56:14.304Z,74.71
